Latest Weather Observations for Thredbo Top Station

IDN60901

Issued at 4:45 am EDT Saturday 1 November 2014 (issued every 10 minutes, with the page automatically refreshed every 10 minutes)

About weather observations | Map of Canberra area stations | Latest observations for Canberra area | Other Formats
Station Details ID: 071032 Name: THREDBO AWS Lat: -36.49 Lon: 148.29 Height: 1957.0 m
Data from the previous 72 hours. | See also: Recent months at Thredbo Top Station
Date/Time
EDT
Tmp

°C
App
Tmp
°C
Dew
Point
°C
Rel
Hum
%
Delta-T

°C
Wind Press
QNH
hPa
Press
MSL
hPa
Rain
since
9 am
mm
Dir
 
Spd
km/h
Gust
km/h
Spd
kts
Gust
kts
01/02:00am 13.4 -0.6 -3.4 31 7.1 WNW 61 85 33 46 1006.9 1007.8 0.0
01/01:50am 13.5 0.3 -3.3 31 7.1 W 57 89 31 48 1007.2 1008.1 0.0
01/01:30am 13.1 0.8 -3.6 31 7.0 WNW 52 70 28 38 1007.9 1008.8 0.0
01/01:21am 13.0 2.2 -3.7 31 6.9 WNW 44 63 24 34 1008.0 1009.0 0.0
01/01:00am 12.8 1.6 -3.9 31 6.9 WNW 46 61 25 33 1008.5 1009.4 0.0
01/12:34am 13.8 3.5 -3.9 29 7.4 WNW 41 59 22 32 1008.8 1009.8 0.0
01/12:30am 13.1 2.9 -3.6 31 7.0 WNW 41 52 22 28 1009.0 1009.9 0.0
01/12:03am 13.4 1.8 -3.8 30 7.2 WNW 48 67 26 36 1009.4 1010.4 0.0
01/12:00am 13.6 2.0 -4.1 29 7.3 WNW 48 63 26 34 1009.4 1010.4 0.0
 
Date/Time
EDT
Tmp

°C
App
Tmp
°C
Dew
Point
°C
Rel
Hum
%
Delta-T

°C
Wind Press
QNH
hPa
Press
MSL
hPa
Rain
since
9 am
mm
Dir
 
Spd
km/h
Gust
km/h
Spd
kts
Gust
kts
31/11:31pm 13.4 2.2 -3.8 30 7.1 WNW 46 65 25 35 1009.6 1010.6 0.0
31/11:30pm 13.1 1.5 -3.6 31 7.0 WNW 48 65 26 35 1009.8 1010.7 0.0
31/11:02pm 13.5 2.7 -3.3 31 7.1 WNW 44 65 24 35 1010.1 1011.1 0.0
31/11:00pm 13.2 2.6 -3.1 32 6.9 WNW 43 54 23 29 1010.1 1011.1 0.0
31/10:30pm 13.5 1.2 -3.3 31 7.1 WNW 52 70 28 38 1010.2 1011.2 0.0
31/10:04pm 13.3 1.8 -2.6 33 6.8 WNW 48 67 26 36 1010.4 1011.4 0.0
31/10:00pm 13.4 2.7 -2.5 33 6.8 WNW 44 57 24 31 1010.6 1011.6 0.0
31/09:38pm 13.2 2.5 -2.3 34 6.6 WNW 44 63 24 34 1010.6 1011.6 0.0
31/09:30pm 13.6 2.6 -2.3 33 6.8 WNW 46 61 25 33 1010.6 1011.6 0.0
31/09:16pm 13.6 1.4 -2.3 33 6.8 WNW 52 70 28 38 1010.6 1011.6 0.0
31/09:00pm 13.9 1.7 -2.5 32 7.1 WNW 52 67 28 36 1010.7 1011.7 0.0
31/08:30pm 14.0 3.5 -2.4 32 7.1 WNW 43 56 23 30 1010.8 1011.8 0.0
31/08:00pm 13.5 5.5 -2.0 34 6.7 WNW 30 43 16 23 1010.8 1011.8 0.0
31/07:30pm 13.4 5.9 -1.7 35 6.6 WNW 28 46 15 25 1010.9 1011.9 0.0
31/07:26pm 13.7 6.1 -1.9 34 6.8 WNW 28 46 15 25 1010.9 1011.9 0.0
31/07:00pm 13.7 6.9 -1.5 35 6.7 W 24 37 13 20 1010.9 1011.9 0.0
31/06:30pm 14.2 7.2 -0.3 37 6.5 W 26 41 14 22 1011.0 1012.0 0.0
31/06:11pm 14.9 7.6 0.0 36 6.8 W 28 46 15 25 1011.0 1012.0 0.0
31/06:00pm 15.2 8.7 0.6 37 6.8 W 24 41 13 22 1011.0 1012.0 0.0
31/05:54pm 14.8 7.2 0.6 38 6.6 W 30 48 16 26 1011.0 1012.0 0.0
31/05:30pm 15.6 8.9 1.3 38 6.8 W 26 37 14 20 1011.1 1012.1 0.0
31/05:01pm 14.9 7.2 2.1 42 6.1 WNW 32 52 17 28 1011.4 1012.4 0.0
31/05:00pm 14.9 7.5 1.8 41 6.2 W 30 44 16 24 1011.5 1012.5 0.0
31/04:30pm 15.0 7.7 2.2 42 6.1 W 30 48 16 26 1011.5 1012.5 0.0
31/04:00pm 15.5 6.8 2.3 41 6.4 W 37 57 20 31 1011.9 1013.0 0.0
31/03:30pm 15.4 6.4 2.2 41 6.3 WNW 39 57 21 31 1012.4 1013.4 0.0
31/03:01pm 15.7 7.1 2.5 41 6.4 W 37 56 20 30 1012.7 1013.8 0.0
31/03:00pm 15.5 6.5 2.7 42 6.2 W 39 56 21 30 1012.7 1013.8 0.0
31/02:30pm 14.6 4.0 0.8 39 6.4 W 46 69 25 37 1013.1 1014.2 0.0
31/02:07pm 14.7 4.0 2.3 43 5.9 WNW 48 67 26 36 1013.4 1014.5 0.0
31/02:00pm 14.5 3.3 2.1 43 5.9 WNW 50 67 27 36 1013.8 1014.9 0.0
31/01:30pm 13.9 2.0 1.9 44 5.7 WNW 54 74 29 40 1014.0 1015.1 0.0
31/01:00pm 13.1 1.9 1.8 46 5.3 WNW 50 74 27 40 1014.4 1015.6 0.0
31/12:42pm 13.9 2.6 1.5 43 5.8 WNW 50 69 27 37 1014.4 1015.6 0.0
31/12:30pm 13.9 2.3 1.5 43 5.8 WNW 52 69 28 37 1014.4 1015.6 0.0
31/12:00pm 13.1 1.4 0.8 43 5.6 WNW 52 70 28 38 1015.0 1016.2 0.0
31/11:30am 12.4 0.2 0.5 44 5.4 WNW 54 74 29 40 1015.2 1016.4 0.0
31/11:09am 12.7 0.2 1.1 45 5.3 WNW 56 74 30 40 1015.6 1016.7 0.0
31/11:00am 12.5 -0.2 0.6 44 5.4 WNW 57 74 31 40 1015.5 1016.6 0.0
31/10:30am 12.3 0.1 0.4 44 5.4 WNW 54 74 29 40 1015.6 1016.7 0.0
31/10:19am 11.9 -0.6 0.7 46 5.1 WNW 56 76 30 41 1015.8 1017.0 0.0
31/10:00am 12.2 0.9 0.9 46 5.1 WNW 50 61 27 33 1015.9 1017.1 0.0
31/09:30am 11.0 -0.1 -0.2 46 4.9 WNW 48 61 26 33 1016.2 1017.3 0.0
31/09:00am 11.0 0.2 -0.8 44 5.1 WNW 46 65 25 35 1016.2 1017.3 0.0
31/08:30am 10.9 2.5 -0.9 44 5.1 W 33 52 18 28 1016.2 1017.3 0.0
31/08:00am 10.6 2.3 -0.2 47 4.7 W 33 52 18 28 1015.8 1017.0 0.0
31/07:37am 10.4 2.1 -0.4 47 4.7 W 33 52 18 28 1015.5 1016.6 0.0
31/07:30am 10.2 1.5 -0.6 47 4.7 W 35 50 19 27 1015.5 1016.6 0.0
31/07:00am 9.5 1.4 -0.1 51 4.2 W 32 52 17 28 1015.4 1016.5 0.0
31/06:56am 9.4 1.3 -0.5 50 4.3 W 32 50 17 27 1015.2 1016.4 0.0
31/06:30am 9.1 0.4 -0.2 52 4.0 W 35 44 19 24 1015.2 1016.4 0.0
31/06:00am 8.7 -0.4 -0.9 51 4.1 WNW 37 50 20 27 1015.1 1016.3 0.0
31/05:30am 8.8 0.1 -0.8 51 4.1 W 35 59 19 32 1015.1 1016.3 0.0
31/05:03am 9.0 0.2 -1.1 49 4.3 W 35 54 19 29 1014.8 1015.9 0.0
31/05:00am 8.8 -0.4 -1.3 49 4.2 W 37 48 20 26 1014.8 1015.9 0.0
31/04:49am 9.1 -0.1 -1.3 48 4.4 W 37 59 20 32 1014.7 1015.8 0.0
31/04:30am 8.9 -0.7 -1.2 49 4.3 W 39 56 21 30 1014.7 1015.8 0.0
31/04:01am 9.4 -0.6 -1.6 46 4.6 W 41 59 22 32 1015.0 1016.2 0.0
31/04:00am 9.1 -1.3 -1.9 46 4.6 W 43 59 23 32 1014.9 1016.0 0.0
31/03:36am 9.2 -0.5 -2.1 45 4.7 W 39 59 21 32 1015.2 1016.4 0.0
31/03:30am 9.0 -0.7 -2.0 46 4.6 W 39 56 21 30 1015.2 1016.4 0.0
31/03:00am 9.3 -1.7 -1.7 46 4.6 W 46 65 25 35 1015.4 1016.5 0.0
31/02:30am 9.3 -1.7 -2.0 45 4.7 W 46 65 25 35 1015.4 1016.5 0.0
31/02:13am 9.3 -1.3 -1.7 46 4.6 W 44 63 24 34 1015.5 1016.6 0.0
31/02:00am 8.7 -2.3 -1.7 48 4.3 W 46 61 25 33 1015.6 1016.7 0.0
31/01:30am 8.8 -1.8 -1.9 47 4.4 W 44 63 24 34 1015.9 1017.1 0.0
31/01:03am 9.1 -2.0 -2.5 44 4.8 W 46 67 25 36 1016.3 1017.5 0.0
31/01:00am 8.9 -2.2 -2.7 44 4.7 W 46 61 25 33 1016.4 1017.6 0.0
31/12:30am 9.2 -3.6 -4.0 39 5.2 WNW 54 65 29 35 1016.4 1017.6 0.0
31/12:00am 9.0 -3.2 -2.6 44 4.7 WNW 52 61 28 33 1016.6 1017.8 0.0
 
Date/Time
EDT
Tmp

°C
App
Tmp
°C
Dew
Point
°C
Rel
Hum
%
Delta-T

°C
Wind Press
QNH
hPa
Press
MSL
hPa
Rain
since
9 am
mm
Dir
 
Spd
km/h
Gust
km/h
Spd
kts
Gust
kts
30/11:30pm 8.5 -1.5 -1.6 49 4.2 WNW 41 56 22 30 1016.8 1018.0 0.0
30/11:00pm 8.3 -1.7 -2.0 48 4.2 WNW 41 50 22 27 1016.8 1018.0 0.0
30/10:30pm 8.3 -0.5 -1.5 50 4.1 W 35 48 19 26 1017.0 1018.2 0.0
30/10:00pm 8.1 -0.6 -0.4 55 3.6 W 35 46 19 25 1017.2 1018.4 0.0
30/09:30pm 8.2 0.0 0.4 58 3.4 W 33 48 18 26 1017.2 1018.4 0.0
30/09:00pm 8.2 0.6 0.4 58 3.4 W 30 44 16 24 1017.0 1018.2 0.0
30/08:30pm 8.1 0.6 1.3 62 3.0 W 30 43 16 23 1017.0 1018.2 0.0
30/08:00pm 8.4 0.9 1.3 61 3.2 W 30 43 16 23 1016.7 1017.9 0.0
30/07:30pm 8.7 0.8 1.1 59 3.4 WNW 32 44 17 24 1016.4 1017.6 0.0
30/07:00pm 9.1 1.3 1.8 60 3.3 WNW 32 41 17 22 1016.2 1017.3 0.0
30/06:30pm 9.8 1.0 1.5 56 3.8 W 37 56 20 30 1015.9 1017.1 0.0
30/06:06pm 10.1 1.0 1.7 56 3.8 WNW 39 57 21 31 1015.6 1016.7 0.0
30/06:00pm 9.9 0.0 1.5 56 3.8 WNW 43 59 23 32 1015.7 1016.9 0.0
30/05:30pm 10.6 1.1 1.9 55 4.0 W 41 59 22 32 1015.5 1016.6 0.0
30/05:00pm 10.6 0.7 1.7 54 4.1 WNW 43 63 23 34 1015.5 1016.6 0.0
30/04:35pm 10.1 0.2 1.5 55 3.9 WNW 43 61 23 33 1015.6 1016.7 0.0
30/04:30pm 10.4 0.6 2.3 57 3.7 WNW 43 59 23 32 1015.6 1016.7 0.0
30/04:09pm 11.0 2.7 4.0 62 3.4 W 37 56 20 30 1015.8 1017.0 0.0
30/04:00pm 10.3 1.2 3.8 64 3.1 W 41 56 22 30 1015.8 1017.0 0.0
30/03:34pm 10.4 2.4 3.9 64 3.1 W 35 54 19 29 1015.8 1017.0 0.0
30/03:30pm 10.4 2.5 4.1 65 3.0 W 35 48 19 26 1015.8 1017.0 0.0
30/03:00pm 9.5 -0.7 3.3 65 2.9 WNW 46 65 25 35 1015.9 1017.1 0.0
30/02:30pm 10.4 1.6 3.7 63 3.2 WNW 39 59 21 32 1016.2 1017.3 0.0
30/02:28pm 10.3 1.1 3.6 63 3.2 WNW 41 59 22 32 1016.0 1017.2 0.0
30/02:00pm 9.5 -0.4 2.8 63 3.1 WNW 44 57 24 31 1016.3 1017.5 0.0
30/01:30pm 9.9 -0.2 1.5 56 3.8 W 44 57 24 31 1015.9 1017.1 0.0
30/01:00pm 10.1 0.4 4.0 66 2.9 W 44 65 24 35 1016.2 1017.3 0.0
30/12:51pm 9.7 -0.1 2.3 60 3.4 W 43 65 23 35 1016.2 1017.3 0.0
30/12:30pm 9.9 0.4 1.8 57 3.7 W 41 56 22 30 1016.2 1017.3 0.0
30/12:24pm 10.3 1.9 3.6 63 3.2 W 37 56 20 30 1016.3 1017.5 0.0
30/12:00pm 8.2 -1.8 2.2 66 2.7 WNW 44 59 24 32 1016.5 1017.7 0.0
30/11:30am 9.0 -0.8 3.2 67 2.7 W 44 59 24 32 1017.1 1018.3 0.0
30/11:00am 8.1 -2.1 1.0 61 3.1 W 44 61 24 33 1017.0 1018.2 0.0
30/10:43am 8.2 -1.5 2.7 68 2.5 W 43 61 23 33 1017.0 1018.2 0.0
30/10:30am 7.3 -3.2 1.4 66 2.6 W 46 61 25 33 1017.1 1018.3 0.0
30/10:13am 7.3 -3.6 1.2 65 2.7 W 48 67 26 36 1017.1 1018.3 0.0
30/10:00am 6.4 -5.3 0.9 68 2.4 W 52 67 28 36 1016.7 1017.9 0.0
30/09:30am 6.4 -4.5 1.3 70 2.2 W 48 63 26 34 1016.7 1017.9 0.0
30/09:06am 6.7 -3.8 1.6 70 2.2 W 46 65 25 35 1016.7 1017.9 0.0
30/09:00am 6.5 -4.3 2.0 73 2.0 W 48 63 26 34 1016.7 1017.9 0.0
30/08:30am 4.8 -6.5 1.5 79 1.4 W 50 63 27 34 1016.7 1017.9 0.0
30/08:00am 5.5 -5.7 1.8 77 1.6 W 50 61 27 33 1016.3 1017.5 0.0
30/07:30am 5.1 -6.6 1.2 76 1.7 W 52 67 28 36 1016.0 1017.2 0.0
30/07:00am 3.9 -7.4 1.1 82 1.2 W 50 63 27 34 1015.8 1017.0 0.0
30/06:30am 3.9 -7.4 1.1 82 1.2 W 50 61 27 33 1015.8 1017.0 0.0
30/06:00am 3.6 -5.9 1.5 86 0.9 W 41 54 22 29 1015.8 1017.0 0.0
30/05:30am 3.7 -5.5 1.4 85 1.0 W 39 57 21 31 1015.9 1017.1 0.0
30/05:22am 3.7 -5.4 1.6 86 0.9 W 39 57 21 31 1015.8 1017.0 0.0
30/05:00am 3.6 -6.4 2.1 90 0.7 W 44 57 24 31 1016.0 1017.2 0.0
30/04:30am 3.6 -5.8 2.1 90 0.7 W 41 54 22 29 1015.9 1017.1 0.0
30/04:00am 3.4 -5.3 1.9 90 0.6 W 37 50 20 27 1016.3 1017.5 0.0
30/03:30am 3.2 -5.5 1.7 90 0.6 W 37 48 20 26 1016.3 1017.5 0.0
30/03:00am 3.4 -5.0 1.6 88 0.8 W 35 48 19 26 1016.5 1017.7 0.0
30/02:30am 3.7 -5.4 1.9 88 0.8 W 39 50 21 27 1016.6 1017.8 0.0
30/02:00am 3.8 -6.0 2.0 88 0.8 WNW 43 52 23 28 1016.5 1017.7 0.0
30/01:30am 3.7 -6.8 1.7 87 0.9 WNW 46 56 25 30 1016.4 1017.6 0.0
30/01:00am 3.9 -6.9 1.8 86 0.9 WNW 48 57 26 31 1016.5 1017.7 0.0
30/12:30am 4.0 -7.6 2.0 87 0.9 WNW 52 65 28 35 1016.8 1018.0 0.0
30/12:00am 4.1 -6.3 2.3 88 0.8 W 46 57 25 31 1017.0 1018.2 0.0
 
Date/Time
EDT
Tmp

°C
App
Tmp
°C
Dew
Point
°C
Rel
Hum
%
Delta-T

°C
Wind Press
QNH
hPa
Press
MSL
hPa
Rain
since
9 am
mm
Dir
 
Spd
km/h
Gust
km/h
Spd
kts
Gust
kts
29/11:30pm 4.3 -6.8 2.3 87 0.9 WNW 50 61 27 33 1017.1 1018.3 0.0
29/11:00pm 4.2 -6.5 2.4 88 0.8 WNW 48 59 26 32 1017.1 1018.3 0.0
29/10:30pm 4.6 -7.3 2.1 84 1.1 WNW 54 63 29 34 1017.2 1018.4 0.0
29/10:00pm 5.1 -8.2 1.6 78 1.5 WNW 61 72 33 39 1017.3 1018.5 0.0
29/09:30pm 5.0 -6.9 2.0 81 1.3 WNW 54 63 29 34 1017.6 1018.9 0.0
29/09:00pm 5.2 -7.1 2.2 81 1.3 WNW 56 65 30 35 1017.5 1018.8 0.0
29/08:44pm 5.3 -5.1 2.3 81 1.3 WNW 46 65 25 35 1017.5 1018.8 0.0
29/08:30pm 5.3 -4.1 2.5 82 1.2 W 41 54 22 29 1017.5 1018.8 0.0
29/08:00pm 5.6 -3.7 2.9 83 1.2 WNW 41 56 22 30 1017.4 1018.6 0.0
29/07:52pm 5.8 -2.0 3.0 82 1.3 W 33 52 18 28 1017.3 1018.5 0.0
29/07:30pm 5.9 -1.7 3.1 82 1.3 W 32 44 17 24 1017.1 1018.3 0.0
29/07:00pm 6.5 -1.1 2.8 77 1.7 W 32 44 17 24 1017.1 1018.3 0.0
29/06:30pm 7.1 -0.4 3.5 78 1.7 WNW 32 43 17 23 1017.0 1018.2 0.0
29/06:00pm 7.2 -0.3 3.4 77 1.8 WNW 32 48 17 26 1016.8 1018.0 0.0
29/05:41pm 7.7 1.0 3.4 74 2.0 W 28 46 15 25 1016.7 1017.9 0.0
29/05:30pm 8.9 2.6 3.9 71 2.4 W 26 44 14 24 1016.7 1017.9 0.0
29/05:00pm 9.1 2.8 3.7 69 2.6 W 26 39 14 21 1016.6 1017.8 0.0
29/04:30pm 9.0 1.4 2.6 64 2.9 WNW 32 44 17 24 1016.7 1017.9 0.0
29/04:00pm 10.5 3.3 0.8 51 4.3 W 28 46 15 25 1016.6 1017.8 0.0
29/03:59pm 10.3 3.2 1.2 53 4.1 W 28 46 15 25 1016.5 1017.7 0.0
29/03:30pm 11.2 3.9 0.3 47 4.9 W 28 41 15 22 1016.6 1017.8 0.0
29/03:00pm 10.5 2.9 -2.2 41 5.3 W 28 41 15 22 1016.6 1017.8 0.0
29/02:30pm 10.5 3.4 1.1 52 4.2 W 28 41 15 22 1017.0 1018.2 0.0
29/02:00pm 9.5 2.1 -0.7 49 4.4 W 28 41 15 22 1017.3 1018.5 0.0
29/01:30pm 9.8 1.9 0.9 54 4.0 W 32 41 17 22 1017.3 1018.5 0.0
29/11:00am 9.4 3.5 -1.0 48 4.4 WSW 20 32 11 17 1017.9 1019.1 0.0
29/10:30am 8.9 3.1 -1.2 49 4.3 WSW 19 30 10 16 1018.0 1019.2 0.0
29/10:00am 7.6 1.5 -2.7 48 4.1 WSW 20 30 11 16 1017.8 1019.0 0.0
29/09:30am 8.0 1.9 -2.6 47 4.3 WSW 20 32 11 17 1017.4 1018.6 0.0
29/09:00am 6.7 1.0 -3.5 48 4.0 SW 17 30 9 16 1017.3 1018.5 0.4
29/08:30am 5.2 -1.2 -4.6 49 3.7 SW 20 37 11 20 1017.2 1018.4 0.4
29/08:00am 4.6 -1.8 -4.6 51 3.4 SW 20 33 11 18 1016.8 1018.0 0.4
29/07:30am 4.7 -1.7 -4.8 50 3.5 SW 20 30 11 16 1016.5 1017.7 0.4
29/07:00am 3.6 -3.5 -4.8 54 3.1 SW 24 33 13 18 1016.3 1017.5 0.4
29/06:38am 3.3 -4.6 -5.1 54 3.0 WSW 28 46 15 25 1016.0 1017.2 0.4
29/06:30am 2.1 -6.5 -4.0 64 2.3 WSW 32 46 17 25 1015.8 1017.0 0.4
29/06:00am 1.4 -7.1 -2.9 73 1.7 WSW 32 44 17 24 1015.4 1016.5 0.4
29/05:30am 1.9 -6.5 -2.6 72 1.7 WSW 32 54 17 29 1015.1 1016.3 0.4
29/05:13am 1.2 -7.1 -1.4 83 1.0 WSW 32 54 17 29 1014.9 1016.0 0.4
29/05:00am 0.5 -7.8 -0.5 93 0.4 W 33 43 18 23 1014.7 1015.8 0.4

Latest Capital City Observations: Canberra | Sydney | Melbourne | Brisbane | Adelaide | Perth | Hobart | Darwin

Other Formats:

Comma delimited format used in spreadsheet applications
http://www.bom.gov.au/fwo/IDN60903/IDN60903.95909.axf

JavaScript Object Notation format (JSON) in row-major order
http://www.bom.gov.au/fwo/IDN60903/IDN60903.95909.json